Aviation Digital Data Service (ADDS)

Output produced by METARs form (1019 UTC 30 June 2016)
found at http://aviationweather.gov/adds/metars/
 
KAEX 300953Z AUTO 00000KT 8SM CLR 22/22 A2995 RMK AO2 SLP144 T02220222